sensor_id;sensor_type;location;lat;lon;timestamp;temperature;humidity
12907;DHT22;6521;50.498;8.474;2022-09-27T00:00:47;10.02;94.21
12907;DHT22;6521;50.498;8.474;2022-09-27T00:03:18;9.97;94.36
12907;DHT22;6521;50.498;8.474;2022-09-27T00:05:48;9.92;94.76
12907;DHT22;6521;50.498;8.474;2022-09-27T00:08:19;9.95;94.33
12907;DHT22;6521;50.498;8.474;2022-09-27T00:11:00;10.01;94.28
12907;DHT22;6521;50.498;8.474;2022-09-27T00:13:31;9.98;94.29
12907;DHT22;6521;50.498;8.474;2022-09-27T00:16:03;9.95;94.28
12907;DHT22;6521;50.498;8.474;2022-09-27T00:18:36;9.94;94.41
12907;DHT22;6521;50.498;8.474;2022-09-27T00:21:10;9.97;94.23
12907;DHT22;6521;50.498;8.474;2022-09-27T00:23:41;9.92;94.32
12907;DHT22;6521;50.498;8.474;2022-09-27T00:26:12;9.94;94.17
12907;DHT22;6521;50.498;8.474;2022-09-27T00:28:43;9.94;94.21
12907;DHT22;6521;50.498;8.474;2022-09-27T00:31:40;9.92;93.96
12907;DHT22;6521;50.498;8.474;2022-09-27T00:34:17;9.89;93.94
12907;DHT22;6521;50.498;8.474;2022-09-27T00:36:49;9.87;94.11
12907;DHT22;6521;50.498;8.474;2022-09-27T00:39:20;9.88;93.82
12907;DHT22;6521;50.498;8.474;2022-09-27T00:41:51;9.81;93.99
12907;DHT22;6521;50.498;8.474;2022-09-27T00:47:03;9.78;93.89
12907;DHT22;6521;50.498;8.474;2022-09-27T00:52:37;9.80;93.97
12907;DHT22;6521;50.498;8.474;2022-09-27T00:55:24;9.81;93.55
12907;DHT22;6521;50.498;8.474;2022-09-27T00:57:55;9.73;93.78
12907;DHT22;6521;50.498;8.474;2022-09-27T01:00:26;9.80;93.59
12907;DHT22;6521;50.498;8.474;2022-09-27T01:02:58;9.75;93.64
12907;DHT22;6521;50.498;8.474;2022-09-27T01:05:29;9.77;93.49
12907;DHT22;6521;50.498;8.474;2022-09-27T01:08:00;9.74;93.59
12907;DHT22;6521;50.498;8.474;2022-09-27T01:10:35;9.82;93.61
12907;DHT22;6521;50.498;8.474;2022-09-27T01:13:19;9.80;93.60
12907;DHT22;6521;50.498;8.474;2022-09-27T01:16:03;9.73;93.77
12907;DHT22;6521;50.498;8.474;2022-09-27T01:28:03;9.73;93.93
12907;DHT22;6521;50.498;8.474;2022-09-27T01:33:38;9.67;94.02
12907;DHT22;6521;50.498;8.474;2022-09-27T01:36:25;9.70;93.97
12907;DHT22;6521;50.498;8.474;2022-09-27T01:42:09;9.60;94.34
12907;DHT22;6521;50.498;8.474;2022-09-27T01:45:07;9.62;94.35
12907;DHT22;6521;50.498;8.474;2022-09-27T01:47:58;9.71;93.84
12907;DHT22;6521;50.498;8.474;2022-09-27T01:51:06;9.70;93.92
12907;DHT22;6521;50.498;8.474;2022-09-27T01:53:44;9.68;94.00
12907;DHT22;6521;50.498;8.474;2022-09-27T01:56:42;9.65;94.07
12907;DHT22;6521;50.498;8.474;2022-09-27T01:59:32;9.64;93.97
12907;DHT22;6521;50.498;8.474;2022-09-27T02:02:16;9.60;93.84
12907;DHT22;6521;50.498;8.474;2022-09-27T02:05:11;9.64;93.91
12907;DHT22;6521;50.498;8.474;2022-09-27T02:07:52;9.62;93.96
12907;DHT22;6521;50.498;8.474;2022-09-27T02:10:31;9.62;93.76
12907;DHT22;6521;50.498;8.474;2022-09-27T02:13:18;9.58;93.83
12907;DHT22;6521;50.498;8.474;2022-09-27T02:16:20;9.57;94.08
12907;DHT22;6521;50.498;8.474;2022-09-27T02:22:11;9.61;94.04
12907;DHT22;6521;50.498;8.474;2022-09-27T02:24:56;9.57;93.79
12907;DHT22;6521;50.498;8.474;2022-09-27T02:27:37;9.61;93.88
12907;DHT22;6521;50.498;8.474;2022-09-27T02:30:15;9.55;93.92
12907;DHT22;6521;50.498;8.474;2022-09-27T02:32:50;9.54;94.27
12907;DHT22;6521;50.498;8.474;2022-09-27T02:35:25;9.55;94.26
12907;DHT22;6521;50.498;8.474;2022-09-27T02:37:57;9.51;94.28
12907;DHT22;6521;50.498;8.474;2022-09-27T02:40:33;9.52;93.97
12907;DHT22;6521;50.498;8.474;2022-09-27T02:43:05;9.44;94.06
12907;DHT22;6521;50.498;8.474;2022-09-27T02:45:44;9.51;93.99
12907;DHT22;6521;50.498;8.474;2022-09-27T02:48:24;9.48;94.29
12907;DHT22;6521;50.498;8.474;2022-09-27T02:51:14;9.46;94.11
12907;DHT22;6521;50.498;8.474;2022-09-27T03:00:13;9.41;93.90
12907;DHT22;6521;50.498;8.474;2022-09-27T03:03:20;9.43;93.85
12907;DHT22;6521;50.498;8.474;2022-09-27T03:06:05;9.40;94.09
12907;DHT22;6521;50.498;8.474;2022-09-27T03:08:37;9.37;93.82
12907;DHT22;6521;50.498;8.474;2022-09-27T03:11:09;9.36;93.65
12907;DHT22;6521;50.498;8.474;2022-09-27T03:13:39;9.34;93.34
12907;DHT22;6521;50.498;8.474;2022-09-27T03:16:11;9.30;93.24
12907;DHT22;6521;50.498;8.474;2022-09-27T03:19:00;9.30;93.25
12907;DHT22;6521;50.498;8.474;2022-09-27T03:22:07;9.29;93.86
12907;DHT22;6521;50.498;8.474;2022-09-27T03:24:40;9.29;93.79
12907;DHT22;6521;50.498;8.474;2022-09-27T03:27:11;9.23;93.51
12907;DHT22;6521;50.498;8.474;2022-09-27T03:29:42;9.27;93.73
12907;DHT22;6521;50.498;8.474;2022-09-27T03:32:13;9.23;93.48
12907;DHT22;6521;50.498;8.474;2022-09-27T03:34:57;9.23;93.31
12907;DHT22;6521;50.498;8.474;2022-09-27T03:37:28;9.19;93.49
12907;DHT22;6521;50.498;8.474;2022-09-27T03:39:59;9.15;93.72
12907;DHT22;6521;50.498;8.474;2022-09-27T03:42:33;9.18;93.65
12907;DHT22;6521;50.498;8.474;2022-09-27T03:45:04;9.15;93.57
12907;DHT22;6521;50.498;8.474;2022-09-27T03:47:40;9.12;93.70
12907;DHT22;6521;50.498;8.474;2022-09-27T03:50:13;9.09;93.53
12907;DHT22;6521;50.498;8.474;2022-09-27T03:52:44;9.00;93.83
12907;DHT22;6521;50.498;8.474;2022-09-27T03:55:15;9.05;93.88
12907;DHT22;6521;50.498;8.474;2022-09-27T03:57:46;8.99;93.71
12907;DHT22;6521;50.498;8.474;2022-09-27T04:00:19;8.99;93.82
12907;DHT22;6521;50.498;8.474;2022-09-27T04:02:50;8.96;93.91
12907;DHT22;6521;50.498;8.474;2022-09-27T04:05:27;8.92;94.18
12907;DHT22;6521;50.498;8.474;2022-09-27T04:08:11;8.89;94.20
12907;DHT22;6521;50.498;8.474;2022-09-27T04:10:45;8.96;94.03
12907;DHT22;6521;50.498;8.474;2022-09-27T04:13:16;8.91;93.97
12907;DHT22;6521;50.498;8.474;2022-09-27T04:15:55;8.85;94.34
12907;DHT22;6521;50.498;8.474;2022-09-27T04:18:49;8.92;94.18
12907;DHT22;6521;50.498;8.474;2022-09-27T04:21:39;8.92;94.30
12907;DHT22;6521;50.498;8.474;2022-09-27T04:24:12;8.89;94.19
12907;DHT22;6521;50.498;8.474;2022-09-27T04:26:51;8.89;94.19
12907;DHT22;6521;50.498;8.474;2022-09-27T04:29:26;8.93;94.31
12907;DHT22;6521;50.498;8.474;2022-09-27T04:32:03;8.88;94.33
12907;DHT22;6521;50.498;8.474;2022-09-27T04:34:41;8.89;94.34
12907;DHT22;6521;50.498;8.474;2022-09-27T04:37:31;8.82;94.47
12907;DHT22;6521;50.498;8.474;2022-09-27T04:40:06;8.83;94.67
12907;DHT22;6521;50.498;8.474;2022-09-27T04:42:38;8.86;94.21
12907;DHT22;6521;50.498;8.474;2022-09-27T04:45:09;8.81;94.59
12907;DHT22;6521;50.498;8.474;2022-09-27T04:47:43;8.85;94.75
12907;DHT22;6521;50.498;8.474;2022-09-27T04:50:15;8.85;94.65
12907;DHT22;6521;50.498;8.474;2022-09-27T04:53:06;8.85;94.49
12907;DHT22;6521;50.498;8.474;2022-09-27T04:55:38;8.79;94.71
12907;DHT22;6521;50.498;8.474;2022-09-27T04:58:08;8.86;94.65
12907;DHT22;6521;50.498;8.474;2022-09-27T05:00:39;8.82;94.65
12907;DHT22;6521;50.498;8.474;2022-09-27T05:03:32;8.76;94.77
12907;DHT22;6521;50.498;8.474;2022-09-27T05:06:13;8.78;94.86
12907;DHT22;6521;50.498;8.474;2022-09-27T05:08:43;8.81;94.72
12907;DHT22;6521;50.498;8.474;2022-09-27T05:11:33;8.79;94.78
12907;DHT22;6521;50.498;8.474;2022-09-27T05:14:19;8.81;94.75
12907;DHT22;6521;50.498;8.474;2022-09-27T05:16:59;8.82;94.92
12907;DHT22;6521;50.498;8.474;2022-09-27T05:19:36;8.81;94.75
12907;DHT22;6521;50.498;8.474;2022-09-27T05:22:19;8.78;94.91
12907;DHT22;6521;50.498;8.474;2022-09-27T05:24:50;8.83;94.88
12907;DHT22;6521;50.498;8.474;2022-09-27T05:27:21;8.81;94.73
12907;DHT22;6521;50.498;8.474;2022-09-27T05:29:51;8.78;94.79
12907;DHT22;6521;50.498;8.474;2022-09-27T05:32:45;8.75;94.69
12907;DHT22;6521;50.498;8.474;2022-09-27T05:35:53;8.76;94.72
12907;DHT22;6521;50.498;8.474;2022-09-27T05:38:27;8.79;94.88
12907;DHT22;6521;50.498;8.474;2022-09-27T05:41:00;8.83;94.45
12907;DHT22;6521;50.498;8.474;2022-09-27T05:43:31;8.76;94.71
12907;DHT22;6521;50.498;8.474;2022-09-27T05:46:05;8.81;94.79
12907;DHT22;6521;50.498;8.474;2022-09-27T05:48:35;8.79;94.52
12907;DHT22;6521;50.498;8.474;2022-09-27T05:51:10;8.81;94.48
12907;DHT22;6521;50.498;8.474;2022-09-27T05:53:44;8.73;94.97
12907;DHT22;6521;50.498;8.474;2022-09-27T05:56:23;8.79;94.60
12907;DHT22;6521;50.498;8.474;2022-09-27T05:59:16;8.75;94.79
12907;DHT22;6521;50.498;8.474;2022-09-27T06:02:06;8.79;94.85
12907;DHT22;6521;50.498;8.474;2022-09-27T06:04:55;8.75;94.94
12907;DHT22;6521;50.498;8.474;2022-09-27T06:07:49;8.78;94.92
12907;DHT22;6521;50.498;8.474;2022-09-27T06:10:25;8.71;95.09
12907;DHT22;6521;50.498;8.474;2022-09-27T06:13:09;8.75;94.51
12907;DHT22;6521;50.498;8.474;2022-09-27T06:15:44;8.69;94.74
12907;DHT22;6521;50.498;8.474;2022-09-27T06:18:16;8.71;94.76
12907;DHT22;6521;50.498;8.474;2022-09-27T06:20:51;8.69;94.43
12907;DHT22;6521;50.498;8.474;2022-09-27T06:23:22;8.68;94.33
12907;DHT22;6521;50.498;8.474;2022-09-27T06:25:54;8.76;94.57
12907;DHT22;6521;50.498;8.474;2022-09-27T06:28:38;8.68;94.47
12907;DHT22;6521;50.498;8.474;2022-09-27T06:31:10;8.69;94.37
12907;DHT22;6521;50.498;8.474;2022-09-27T06:34:04;8.67;94.36
12907;DHT22;6521;50.498;8.474;2022-09-27T06:36:35;8.67;94.58
12907;DHT22;6521;50.498;8.474;2022-09-27T06:39:06;8.79;94.22
12907;DHT22;6521;50.498;8.474;2022-09-27T06:41:44;8.78;93.93
12907;DHT22;6521;50.498;8.474;2022-09-27T06:44:20;8.75;93.97
12907;DHT22;6521;50.498;8.474;2022-09-27T06:47:09;8.71;93.91
12907;DHT22;6521;50.498;8.474;2022-09-27T06:49:51;8.72;93.89
12907;DHT22;6521;50.498;8.474;2022-09-27T06:52:22;8.76;93.77
12907;DHT22;6521;50.498;8.474;2022-09-27T06:54:53;8.69;93.90
12907;DHT22;6521;50.498;8.474;2022-09-27T06:57:24;8.67;94.08
12907;DHT22;6521;50.498;8.474;2022-09-27T07:00:14;8.71;93.67
12907;DHT22;6521;50.498;8.474;2022-09-27T07:03:09;8.60;93.84
12907;DHT22;6521;50.498;8.474;2022-09-27T07:06:18;8.64;93.81
12907;DHT22;6521;50.498;8.474;2022-09-27T07:08:56;8.69;93.35
12907;DHT22;6521;50.498;8.474;2022-09-27T07:11:27;8.75;93.39
12907;DHT22;6521;50.498;8.474;2022-09-27T07:13:58;8.76;93.14
12907;DHT22;6521;50.498;8.474;2022-09-27T07:16:30;8.76;93.24
12907;DHT22;6521;50.498;8.474;2022-09-27T07:19:05;8.72;92.87
12907;DHT22;6521;50.498;8.474;2022-09-27T07:21:37;8.73;93.23
12907;DHT22;6521;50.498;8.474;2022-09-27T07:24:08;8.72;93.05
12907;DHT22;6521;50.498;8.474;2022-09-27T07:26:39;8.81;92.95
12907;DHT22;6521;50.498;8.474;2022-09-27T07:29:12;8.69;93.23
12907;DHT22;6521;50.498;8.474;2022-09-27T07:31:43;8.73;92.95
12907;DHT22;6521;50.498;8.474;2022-09-27T07:34:14;8.75;92.98
12907;DHT22;6521;50.498;8.474;2022-09-27T07:36:45;8.72;93.23
12907;DHT22;6521;50.498;8.474;2022-09-27T07:39:16;8.68;93.37
12907;DHT22;6521;50.498;8.474;2022-09-27T07:41:47;8.69;93.56
12907;DHT22;6521;50.498;8.474;2022-09-27T07:44:19;8.68;93.27
12907;DHT22;6521;50.498;8.474;2022-09-27T07:47:22;8.71;92.79
12907;DHT22;6521;50.498;8.474;2022-09-27T07:50:14;8.72;93.00
12907;DHT22;6521;50.498;8.474;2022-09-27T07:52:56;8.68;92.85
12907;DHT22;6521;50.498;8.474;2022-09-27T07:55:39;8.78;92.74
12907;DHT22;6521;50.498;8.474;2022-09-27T07:58:16;8.78;92.99
12907;DHT22;6521;50.498;8.474;2022-09-27T08:00:47;8.78;93.06
12907;DHT22;6521;50.498;8.474;2022-09-27T08:03:18;8.78;92.91
12907;DHT22;6521;50.498;8.474;2022-09-27T08:05:50;8.78;92.75
12907;DHT22;6521;50.498;8.474;2022-09-27T08:08:21;8.78;92.52
12907;DHT22;6521;50.498;8.474;2022-09-27T08:10:54;8.86;92.05
12907;DHT22;6521;50.498;8.474;2022-09-27T08:13:25;8.81;91.91
12907;DHT22;6521;50.498;8.474;2022-09-27T08:16:00;8.85;91.37
12907;DHT22;6521;50.498;8.474;2022-09-27T08:18:35;8.88;91.62
12907;DHT22;6521;50.498;8.474;2022-09-27T08:21:25;8.88;91.45
12907;DHT22;6521;50.498;8.474;2022-09-27T08:24:14;8.86;91.87
12907;DHT22;6521;50.498;8.474;2022-09-27T08:27:05;8.98;92.46
12907;DHT22;6521;50.498;8.474;2022-09-27T08:29:50;9.03;92.10
12907;DHT22;6521;50.498;8.474;2022-09-27T08:32:21;9.08;91.68
12907;DHT22;6521;50.498;8.474;2022-09-27T08:34:52;9.19;91.59
12907;DHT22;6521;50.498;8.474;2022-09-27T08:37:25;9.40;91.83
12907;DHT22;6521;50.498;8.474;2022-09-27T08:39:56;9.52;91.21
12907;DHT22;6521;50.498;8.474;2022-09-27T08:42:39;9.57;90.53
12907;DHT22;6521;50.498;8.474;2022-09-27T08:45:17;9.57;90.63
12907;DHT22;6521;50.498;8.474;2022-09-27T08:47:53;9.48;89.25
12907;DHT22;6521;50.498;8.474;2022-09-27T08:50:34;9.51;89.23
12907;DHT22;6521;50.498;8.474;2022-09-27T08:55:48;9.44;89.31
12907;DHT22;6521;50.498;8.474;2022-09-27T09:01:01;9.37;88.14
12907;DHT22;6521;50.498;8.474;2022-09-27T09:03:43;9.37;88.59
12907;DHT22;6521;50.498;8.474;2022-09-27T09:06:22;9.48;89.07
12907;DHT22;6521;50.498;8.474;2022-09-27T09:08:58;9.52;88.97
12907;DHT22;6521;50.498;8.474;2022-09-27T09:14:58;9.55;89.02
12907;DHT22;6521;50.498;8.474;2022-09-27T09:17:42;9.64;88.81
12907;DHT22;6521;50.498;8.474;2022-09-27T09:23:30;9.89;87.75
12907;DHT22;6521;50.498;8.474;2022-09-27T09:26:17;9.94;87.09
12907;DHT22;6521;50.498;8.474;2022-09-27T09:29:13;10.01;87.83
12907;DHT22;6521;50.498;8.474;2022-09-27T09:34:59;10.10;86.29
12907;DHT22;6521;50.498;8.474;2022-09-27T09:37:39;10.23;86.06
12907;DHT22;6521;50.498;8.474;2022-09-27T09:43:28;10.33;83.55
12907;DHT22;6521;50.498;8.474;2022-09-27T09:46:15;10.32;83.87
12907;DHT22;6521;50.498;8.474;2022-09-27T09:48:52;10.35;84.87
12907;DHT22;6521;50.498;8.474;2022-09-27T09:51:28;10.50;85.34
12907;DHT22;6521;50.498;8.474;2022-09-27T09:54:09;10.73;84.91
12907;DHT22;6521;50.498;8.474;2022-09-27T09:56:58;10.78;81.22
12907;DHT22;6521;50.498;8.474;2022-09-27T09:59:48;10.81;82.34
12907;DHT22;6521;50.498;8.474;2022-09-27T10:04:52;10.74;82.15
12907;DHT22;6521;50.498;8.474;2022-09-27T10:07:25;10.67;80.90
12907;DHT22;6521;50.498;8.474;2022-09-27T10:10:00;10.53;81.39
12907;DHT22;6521;50.498;8.474;2022-09-27T10:13:02;10.46;81.67
12907;DHT22;6521;50.498;8.474;2022-09-27T10:15:37;10.39;82.87
12907;DHT22;6521;50.498;8.474;2022-09-27T10:18:15;10.47;83.10
12907;DHT22;6521;50.498;8.474;2022-09-27T10:20:55;10.53;83.26
12907;DHT22;6521;50.498;8.474;2022-09-27T10:23:26;10.59;82.35
12907;DHT22;6521;50.498;8.474;2022-09-27T10:26:21;10.68;82.09
12907;DHT22;6521;50.498;8.474;2022-09-27T10:28:54;10.68;81.96
12907;DHT22;6521;50.498;8.474;2022-09-27T10:31:42;10.78;82.46
12907;DHT22;6521;50.498;8.474;2022-09-27T10:34:36;10.91;81.60
12907;DHT22;6521;50.498;8.474;2022-09-27T10:39:56;11.00;82.12
12907;DHT22;6521;50.498;8.474;2022-09-27T10:42:33;11.17;81.50
12907;DHT22;6521;50.498;8.474;2022-09-27T10:45:28;11.10;80.56
12907;DHT22;6521;50.498;8.474;2022-09-27T10:48:03;11.11;80.07
12907;DHT22;6521;50.498;8.474;2022-09-27T10:50:57;11.12;79.60
12907;DHT22;6521;50.498;8.474;2022-09-27T10:53:35;11.10;80.04
12907;DHT22;6521;50.498;8.474;2022-09-27T10:56:27;11.07;80.25
12907;DHT22;6521;50.498;8.474;2022-09-27T10:58:59;11.05;81.01
12907;DHT22;6521;50.498;8.474;2022-09-27T11:01:45;10.91;78.72
12907;DHT22;6521;50.498;8.474;2022-09-27T11:10:31;10.63;83.70
12907;DHT22;6521;50.498;8.474;2022-09-27T11:13:14;10.56;83.40
12907;DHT22;6521;50.498;8.474;2022-09-27T11:16:15;10.47;84.20
12907;DHT22;6521;50.498;8.474;2022-09-27T11:18:57;10.39;84.69
12907;DHT22;6521;50.498;8.474;2022-09-27T11:27:48;10.46;86.56
12907;DHT22;6521;50.498;8.474;2022-09-27T11:30:46;10.81;86.32
12907;DHT22;6521;50.498;8.474;2022-09-27T11:36:31;12.00;82.57
12907;DHT22;6521;50.498;8.474;2022-09-27T11:39:12;12.42;80.70
12907;DHT22;6521;50.498;8.474;2022-09-27T11:41:56;12.91;79.46
12907;DHT22;6521;50.498;8.474;2022-09-27T11:44:53;13.09;79.18
12907;DHT22;6521;50.498;8.474;2022-09-27T11:47:47;13.17;76.85
12907;DHT22;6521;50.498;8.474;2022-09-27T11:50:41;13.22;75.80
12907;DHT22;6521;50.498;8.474;2022-09-27T11:53:35;13.06;76.84
12907;DHT22;6521;50.498;8.474;2022-09-27T11:59:41;12.31;77.03
12907;DHT22;6521;50.498;8.474;2022-09-27T12:05:01;11.86;79.90
12907;DHT22;6521;50.498;8.474;2022-09-27T12:10:19;11.69;81.34
12907;DHT22;6521;50.498;8.474;2022-09-27T12:12:55;11.66;81.87
12907;DHT22;6521;50.498;8.474;2022-09-27T12:15:32;11.61;82.49
12907;DHT22;6521;50.498;8.474;2022-09-27T12:18:19;11.66;81.92
12907;DHT22;6521;50.498;8.474;2022-09-27T12:20:53;11.77;80.83
12907;DHT22;6521;50.498;8.474;2022-09-27T12:23:48;11.96;80.87
12907;DHT22;6521;50.498;8.474;2022-09-27T12:26:42;12.03;79.17
12907;DHT22;6521;50.498;8.474;2022-09-27T12:29:22;12.20;79.17
12907;DHT22;6521;50.498;8.474;2022-09-27T12:35:14;12.34;78.39
12907;DHT22;6521;50.498;8.474;2022-09-27T12:40:40;12.82;76.52
12907;DHT22;6521;50.498;8.474;2022-09-27T12:43:28;12.92;74.85
12907;DHT22;6521;50.498;8.474;2022-09-27T12:49:15;12.89;73.66
12907;DHT22;6521;50.498;8.474;2022-09-27T12:57:33;12.20;75.58
12907;DHT22;6521;50.498;8.474;2022-09-27T13:03:19;11.66;73.97
12907;DHT22;6521;50.498;8.474;2022-09-27T13:11:34;11.05;73.03
12907;DHT22;6521;50.498;8.474;2022-09-27T13:14:22;10.84;74.63
12907;DHT22;6521;50.498;8.474;2022-09-27T13:16:53;10.73;75.70
12907;DHT22;6521;50.498;8.474;2022-09-27T13:22:49;10.33;77.90
12907;DHT22;6521;50.498;8.474;2022-09-27T13:34:48;9.99;80.09
12907;DHT22;6521;50.498;8.474;2022-09-27T13:40:21;10.46;79.42
12907;DHT22;6521;50.498;8.474;2022-09-27T13:45:52;10.77;77.76
12907;DHT22;6521;50.498;8.474;2022-09-27T13:51:03;10.93;77.80
12907;DHT22;6521;50.498;8.474;2022-09-27T13:53:38;10.93;77.31
12907;DHT22;6521;50.498;8.474;2022-09-27T13:56:48;11.08;77.03
12907;DHT22;6521;50.498;8.474;2022-09-27T14:02:36;11.49;76.99
12907;DHT22;6521;50.498;8.474;2022-09-27T14:05:17;11.66;75.82
12907;DHT22;6521;50.498;8.474;2022-09-27T14:07:50;11.59;75.81
12907;DHT22;6521;50.498;8.474;2022-09-27T14:10:22;11.56;75.04
12907;DHT22;6521;50.498;8.474;2022-09-27T14:12:54;11.45;76.14
12907;DHT22;6521;50.498;8.474;2022-09-27T14:15:29;11.40;76.10
12907;DHT22;6521;50.498;8.474;2022-09-27T14:18:02;11.36;77.57
12907;DHT22;6521;50.498;8.474;2022-09-27T14:20:38;11.35;78.28
12907;DHT22;6521;50.498;8.474;2022-09-27T14:23:21;11.29;78.19
12907;DHT22;6521;50.498;8.474;2022-09-27T14:25:54;11.25;78.08
12907;DHT22;6521;50.498;8.474;2022-09-27T14:28:39;11.28;78.55
12907;DHT22;6521;50.498;8.474;2022-09-27T14:31:22;11.29;78.69
12907;DHT22;6521;50.498;8.474;2022-09-27T14:34:06;11.32;78.57
12907;DHT22;6521;50.498;8.474;2022-09-27T14:36:43;11.31;78.98
12907;DHT22;6521;50.498;8.474;2022-09-27T14:39:37;11.29;78.76
12907;DHT22;6521;50.498;8.474;2022-09-27T14:42:27;11.38;78.65
12907;DHT22;6521;50.498;8.474;2022-09-27T14:45:00;11.38;78.47
12907;DHT22;6521;50.498;8.474;2022-09-27T14:47:32;11.42;78.43
12907;DHT22;6521;50.498;8.474;2022-09-27T14:50:26;11.43;78.58
12907;DHT22;6521;50.498;8.474;2022-09-27T14:52:58;11.43;77.94
12907;DHT22;6521;50.498;8.474;2022-09-27T14:55:31;11.46;77.31
12907;DHT22;6521;50.498;8.474;2022-09-27T14:58:12;11.45;77.34
12907;DHT22;6521;50.498;8.474;2022-09-27T15:00:45;11.46;77.98
12907;DHT22;6521;50.498;8.474;2022-09-27T15:03:35;11.45;78.18
12907;DHT22;6521;50.498;8.474;2022-09-27T15:06:09;11.43;78.18
12907;DHT22;6521;50.498;8.474;2022-09-27T15:08:40;11.34;77.69
12907;DHT22;6521;50.498;8.474;2022-09-27T15:11:12;11.26;76.97
12907;DHT22;6521;50.498;8.474;2022-09-27T15:13:44;11.26;77.22
12907;DHT22;6521;50.498;8.474;2022-09-27T15:16:17;11.25;75.62
12907;DHT22;6521;50.498;8.474;2022-09-27T15:21:32;11.12;75.78
12907;DHT22;6521;50.498;8.474;2022-09-27T15:24:04;11.12;76.68
12907;DHT22;6521;50.498;8.474;2022-09-27T15:26:41;11.12;76.09
12907;DHT22;6521;50.498;8.474;2022-09-27T15:29:22;11.08;76.24
12907;DHT22;6521;50.498;8.474;2022-09-27T15:32:03;11.04;75.95
12907;DHT22;6521;50.498;8.474;2022-09-27T15:34:34;11.08;76.05
12907;DHT22;6521;50.498;8.474;2022-09-27T15:37:24;10.96;76.66
12907;DHT22;6521;50.498;8.474;2022-09-27T15:40:07;10.91;75.96
12907;DHT22;6521;50.498;8.474;2022-09-27T15:42:59;10.83;77.89
12907;DHT22;6521;50.498;8.474;2022-09-27T15:45:34;10.80;76.70
12907;DHT22;6521;50.498;8.474;2022-09-27T15:48:16;10.81;76.69
12907;DHT22;6521;50.498;8.474;2022-09-27T15:50:48;10.76;76.99
12907;DHT22;6521;50.498;8.474;2022-09-27T15:56:05;10.83;77.16
12907;DHT22;6521;50.498;8.474;2022-09-27T15:58:36;10.73;77.99
12907;DHT22;6521;50.498;8.474;2022-09-27T16:01:15;10.73;78.29
12907;DHT22;6521;50.498;8.474;2022-09-27T16:03:47;10.70;78.78
12907;DHT22;6521;50.498;8.474;2022-09-27T16:06:18;10.67;78.94
12907;DHT22;6521;50.498;8.474;2022-09-27T16:08:48;10.64;79.13
12907;DHT22;6521;50.498;8.474;2022-09-27T16:11:19;10.57;79.30
12907;DHT22;6521;50.498;8.474;2022-09-27T16:13:50;10.61;79.53
12907;DHT22;6521;50.498;8.474;2022-09-27T16:16:22;10.61;79.38
12907;DHT22;6521;50.498;8.474;2022-09-27T16:18:53;10.57;80.29
12907;DHT22;6521;50.498;8.474;2022-09-27T16:21:23;10.52;80.63
12907;DHT22;6521;50.498;8.474;2022-09-27T16:23:54;10.50;81.12
12907;DHT22;6521;50.498;8.474;2022-09-27T16:26:24;10.45;81.20
12907;DHT22;6521;50.498;8.474;2022-09-27T16:28:55;10.40;81.81
12907;DHT22;6521;50.498;8.474;2022-09-27T16:31:26;10.36;82.44
12907;DHT22;6521;50.498;8.474;2022-09-27T16:33:57;10.30;82.88
12907;DHT22;6521;50.498;8.474;2022-09-27T16:36:29;10.28;83.00
12907;DHT22;6521;50.498;8.474;2022-09-27T16:39:00;10.12;84.01
12907;DHT22;6521;50.498;8.474;2022-09-27T16:41:34;9.87;82.56
12907;DHT22;6521;50.498;8.474;2022-09-27T16:44:11;9.70;83.12
12907;DHT22;6521;50.498;8.474;2022-09-27T16:46:42;9.41;84.20
12907;DHT22;6521;50.498;8.474;2022-09-27T16:49:15;9.30;84.46
12907;DHT22;6521;50.498;8.474;2022-09-27T16:52:04;9.29;84.66
12907;DHT22;6521;50.498;8.474;2022-09-27T16:54:36;9.20;84.90
12907;DHT22;6521;50.498;8.474;2022-09-27T16:57:07;9.10;85.67
12907;DHT22;6521;50.498;8.474;2022-09-27T16:59:38;9.09;85.67
12907;DHT22;6521;50.498;8.474;2022-09-27T17:02:08;9.10;86.13
12907;DHT22;6521;50.498;8.474;2022-09-27T17:04:39;9.09;86.56
12907;DHT22;6521;50.498;8.474;2022-09-27T17:07:11;9.10;86.57
12907;DHT22;6521;50.498;8.474;2022-09-27T17:09:41;9.08;86.42
12907;DHT22;6521;50.498;8.474;2022-09-27T17:12:13;9.03;86.95
12907;DHT22;6521;50.498;8.474;2022-09-27T17:14:45;9.05;87.07
12907;DHT22;6521;50.498;8.474;2022-09-27T17:17:18;9.02;87.62
12907;DHT22;6521;50.498;8.474;2022-09-27T17:19:49;8.99;87.46
12907;DHT22;6521;50.498;8.474;2022-09-27T17:22:20;8.91;87.92
12907;DHT22;6521;50.498;8.474;2022-09-27T17:24:51;8.92;87.30
12907;DHT22;6521;50.498;8.474;2022-09-27T17:27:23;8.92;86.83
12907;DHT22;6521;50.498;8.474;2022-09-27T17:29:57;8.88;86.79
12907;DHT22;6521;50.498;8.474;2022-09-27T17:32:28;8.83;87.39
12907;DHT22;6521;50.498;8.474;2022-09-27T17:34:59;8.78;87.60
12907;DHT22;6521;50.498;8.474;2022-09-27T17:37:31;8.81;87.11
12907;DHT22;6521;50.498;8.474;2022-09-27T17:40:03;8.83;87.25
12907;DHT22;6521;50.498;8.474;2022-09-27T17:42:34;8.81;87.26
12907;DHT22;6521;50.498;8.474;2022-09-27T17:45:07;8.73;87.60
12907;DHT22;6521;50.498;8.474;2022-09-27T17:47:41;8.71;87.67
12907;DHT22;6521;50.498;8.474;2022-09-27T17:50:31;8.67;87.84
12907;DHT22;6521;50.498;8.474;2022-09-27T17:53:02;8.65;88.14
12907;DHT22;6521;50.498;8.474;2022-09-27T17:55:32;8.65;88.26
12907;DHT22;6521;50.498;8.474;2022-09-27T17:58:03;8.64;88.36
12907;DHT22;6521;50.498;8.474;2022-09-27T18:00:36;8.61;88.53
12907;DHT22;6521;50.498;8.474;2022-09-27T18:03:06;8.60;88.68
12907;DHT22;6521;50.498;8.474;2022-09-27T18:05:38;8.58;88.86
12907;DHT22;6521;50.498;8.474;2022-09-27T18:08:08;8.54;88.98
12907;DHT22;6521;50.498;8.474;2022-09-27T18:10:39;8.45;89.39
12907;DHT22;6521;50.498;8.474;2022-09-27T18:13:10;8.45;89.52
12907;DHT22;6521;50.498;8.474;2022-09-27T18:15:42;8.50;89.48
12907;DHT22;6521;50.498;8.474;2022-09-27T18:18:13;8.41;89.74
12907;DHT22;6521;50.498;8.474;2022-09-27T18:20:44;8.37;90.03
12907;DHT22;6521;50.498;8.474;2022-09-27T18:23:15;8.40;89.81
12907;DHT22;6521;50.498;8.474;2022-09-27T18:25:53;8.40;89.94
12907;DHT22;6521;50.498;8.474;2022-09-27T18:28:29;8.37;90.24
12907;DHT22;6521;50.498;8.474;2022-09-27T18:31:06;8.40;90.03
12907;DHT22;6521;50.498;8.474;2022-09-27T18:33:37;8.40;89.99
12907;DHT22;6521;50.498;8.474;2022-09-27T18:36:14;8.38;90.17
12907;DHT22;6521;50.498;8.474;2022-09-27T18:38:52;8.36;90.31
12907;DHT22;6521;50.498;8.474;2022-09-27T18:41:25;8.33;90.24
12907;DHT22;6521;50.498;8.474;2022-09-27T18:44:02;8.34;90.32
12907;DHT22;6521;50.498;8.474;2022-09-27T18:46:34;8.31;90.14
12907;DHT22;6521;50.498;8.474;2022-09-27T18:49:07;8.29;90.38
12907;DHT22;6521;50.498;8.474;2022-09-27T18:51:40;8.26;90.13
12907;DHT22;6521;50.498;8.474;2022-09-27T18:54:18;8.27;90.03
12907;DHT22;6521;50.498;8.474;2022-09-27T18:56:50;8.27;89.94
12907;DHT22;6521;50.498;8.474;2022-09-27T18:59:21;8.24;89.80
12907;DHT22;6521;50.498;8.474;2022-09-27T19:01:53;8.19;89.89
12907;DHT22;6521;50.498;8.474;2022-09-27T19:04:24;8.19;89.95
12907;DHT22;6521;50.498;8.474;2022-09-27T19:06:56;8.19;89.90
12907;DHT22;6521;50.498;8.474;2022-09-27T19:09:27;8.19;89.55
12907;DHT22;6521;50.498;8.474;2022-09-27T19:11:57;8.13;89.94
12907;DHT22;6521;50.498;8.474;2022-09-27T19:14:28;8.20;89.65
12907;DHT22;6521;50.498;8.474;2022-09-27T19:16:59;8.10;90.04